Stations météo

réclame
Mon MeteoGroup
Comiso, Italie (16475): Température de l'air & dewpoint: 11.10.2018 05:00:00 - 17.10.2018 05:00:00 (CEST)Comiso, Italie (16475): Vitesse du vent: 11.10.2018 05:00:00 - 17.10.2018 05:00:00 (CEST)Comiso, Italie (16475): Direction du vent: 11.10.2018 05:00:00 - 17.10.2018 05:00:00 (CEST)Comiso, Italie (16475): visibility: 11.10.2018 05:00:00 - 17.10.2018 05:00:00 (CEST)
Date & Time tt [°C] td [°C] ff [km/h] ff [knt] dd vv [km]
17.10.2018 05:00:00 - - - - - -
17.10.2018 04:00:00 - - - - - -
17.10.2018 03:00:00 - - - - - -
17.10.2018 02:00:00 - - - - - -
17.10.2018 01:00:00 - - - - - -
17.10.2018 00:00:00 - - - - - -
16.10.2018 23:00:00 18,0 17,0 9 5 NW 10
16.10.2018 22:00:00 19,0 18,0 4 2 - 10
16.10.2018 21:00:00 20,0 18,0 5 3 NE 10
16.10.2018 20:00:00 21,0 18,0 9 5 NW 10
16.10.2018 19:00:00 21,0 18,0 2 1 - 10
16.10.2018 18:00:00 22,0 18,0 11 6 WNW 10
16.10.2018 17:00:00 24,0 18,0 11 6 W 10
16.10.2018 16:00:00 24,0 18,0 5 3 SW 10
16.10.2018 15:00:00 25,0 17,0 8 4 SSW 10
16.10.2018 14:00:00 24,0 18,0 5 3 W 10
16.10.2018 13:00:00 23,0 17,0 5 3 SW 10
16.10.2018 12:00:00 23,0 16,0 5 3 W 10
16.10.2018 11:00:00 23,0 16,0 4 2 - 10
16.10.2018 10:00:00 21,0 16,0 8 4 ENE 10
16.10.2018 09:00:00 18,0 16,0 8 4 NE 10
16.10.2018 08:00:00 15,0 14,0 9 5 - 10
16.10.2018 07:00:00 14,0 13,0 5 3 - 10
16.10.2018 06:00:00 - - - - - -
16.10.2018 05:00:00 - - - - - -
16.10.2018 04:00:00 - - - - - -
16.10.2018 03:00:00 - - - - - -
16.10.2018 02:00:00 - - - - - -
16.10.2018 01:00:00 - - - - - -
16.10.2018 00:00:00 - - - - - -
15.10.2018 23:00:00 16,0 16,0 4 2 - 10
15.10.2018 22:00:00 18,0 17,0 4 2 - 10
15.10.2018 21:00:00 19,0 17,0 4 2 - 10
15.10.2018 20:00:00 18,0 17,0 2 1 - 10
15.10.2018 19:00:00 20,0 17,0 5 3 W 10
15.10.2018 18:00:00 21,0 17,0 13 7 WSW 10
15.10.2018 17:00:00 22,0 16,0 15 8 SW 10
15.10.2018 16:00:00 22,0 17,0 13 7 WSW 10
15.10.2018 15:00:00 23,0 16,0 16 9 WSW 10
15.10.2018 14:00:00 22,0 17,0 15 8 WSW 10
15.10.2018 13:00:00 22,0 17,0 18 10 W 10
15.10.2018 12:00:00 22,0 16,0 15 8 W 10
15.10.2018 11:00:00 21,0 16,0 13 7 W 10
15.10.2018 10:00:00 20,0 17,0 9 5 WSW 10
15.10.2018 09:00:00 19,0 17,0 8 4 SSW 10
15.10.2018 08:00:00 18,0 17,0 9 5 SSW 10
15.10.2018 07:00:00 18,0 17,0 11 6 SSW 10
15.10.2018 06:00:00 - - - - - -
15.10.2018 05:00:00 - - - - - -
15.10.2018 04:00:00 - - - - - -
15.10.2018 03:00:00 - - - - - -
15.10.2018 02:00:00 - - - - - -
15.10.2018 01:00:00 - - - - - -
15.10.2018 00:00:00 - - - - - -
14.10.2018 23:00:00 18,0 16,0 9 5 E 6
14.10.2018 22:00:00 18,0 16,0 13 7 - 6
14.10.2018 21:00:00 17,0 15,0 16 9 E 6
14.10.2018 20:00:00 19,0 16,0 13 7 ENE 10
14.10.2018 19:00:00 19,0 16,0 9 5 ENE 10
14.10.2018 18:00:00 20,0 16,0 15 8 ENE 10
14.10.2018 17:00:00 20,0 15,0 16 9 E 10
14.10.2018 16:00:00 20,0 15,0 18 10 ESE 10
14.10.2018 15:00:00 20,0 15,0 16 9 E 10
14.10.2018 14:00:00 19,0 18,0 21 11 NNE 10
14.10.2018 13:00:00 18,0 16,0 5 3 SW 8
14.10.2018 12:00:00 19,0 15,0 13 7 ENE 10
14.10.2018 11:00:00 19,0 15,0 13 7 ENE 10
14.10.2018 10:00:00 19,0 15,0 18 10 NNE 10
14.10.2018 09:00:00 18,0 15,0 16 9 NE 10
14.10.2018 08:00:00 19,0 13,0 13 7 E 10
14.10.2018 07:00:00 19,0 14,0 16 9 NE 10
14.10.2018 06:00:00 - - - - - -
14.10.2018 05:00:00 - - - - - -
14.10.2018 04:00:00 - - - - - -
14.10.2018 03:00:00 - - - - - -
14.10.2018 02:00:00 - - - - - -
14.10.2018 01:00:00 - - - - - -
14.10.2018 00:00:00 - - - - - -
13.10.2018 23:00:00 18,0 14,0 4 2 - 10
13.10.2018 22:00:00 19,0 14,0 9 5 E 10
13.10.2018 21:00:00 19,0 15,0 11 6 ENE 10
13.10.2018 20:00:00 18,0 15,0 9 5 NNE 10
13.10.2018 19:00:00 19,0 15,0 11 6 NE 10
13.10.2018 18:00:00 20,0 14,0 9 5 ESE 10
13.10.2018 17:00:00 21,0 15,0 11 6 - 10
13.10.2018 16:00:00 21,0 15,0 8 4 N 10
13.10.2018 15:00:00 20,0 14,0 5 3 - 10
13.10.2018 14:00:00 20,0 15,0 13 7 ENE 10
13.10.2018 13:00:00 20,0 14,0 13 7 E 10
13.10.2018 12:00:00 20,0 15,0 11 6 E 10
13.10.2018 11:00:00 20,0 13,0 8 4 ENE 10
13.10.2018 10:00:00 19,0 13,0 15 8 NE 10
13.10.2018 09:00:00 19,0 13,0 9 5 ENE 10
13.10.2018 08:00:00 19,0 12,0 15 8 - 10
13.10.2018 07:00:00 19,0 14,0 11 6 - 10
13.10.2018 06:00:00 - - - - - -
13.10.2018 05:00:00 - - - - - -
13.10.2018 04:00:00 - - - - - -
13.10.2018 03:00:00 - - - - - -
13.10.2018 02:00:00 - - - - - -
13.10.2018 01:00:00 - - - - - -
13.10.2018 00:00:00 - - - - - -
12.10.2018 23:00:00 19,0 15,0 9 5 ENE 10
12.10.2018 22:00:00 18,0 16,0 8 4 - 10
12.10.2018 21:00:00 18,0 17,0 4 2 - 10
12.10.2018 20:00:00 19,0 17,0 4 2 - 10
12.10.2018 19:00:00 20,0 17,0 4 2 - 10
12.10.2018 18:00:00 20,0 16,0 11 6 E 10
12.10.2018 17:00:00 21,0 18,0 5 3 E 10
12.10.2018 16:00:00 21,0 18,0 4 2 - 10
12.10.2018 15:00:00 21,0 19,0 9 5 ENE 10
12.10.2018 14:00:00 20,0 18,0 11 6 NNE 10
12.10.2018 13:00:00 24,0 16,0 5 3 W 10
12.10.2018 12:00:00 24,0 16,0 5 3 - 10
12.10.2018 11:00:00 23,0 16,0 2 1 - 10
12.10.2018 10:00:00 20,0 18,0 5 3 NE 10
12.10.2018 09:00:00 19,0 18,0 8 4 NNE 10
12.10.2018 08:00:00 18,0 17,0 8 4 NE 10
12.10.2018 07:00:00 18,0 17,0 5 3 - 10
12.10.2018 06:00:00 - - - - - -
12.10.2018 05:00:00 - - - - - -
12.10.2018 04:00:00 - - - - - -
12.10.2018 03:00:00 - - - - - -
12.10.2018 02:00:00 - - - - - -
12.10.2018 01:00:00 - - - - - -
12.10.2018 00:00:00 - - - - - -
11.10.2018 23:00:00 19,0 17,0 2 1 - 10
11.10.2018 22:00:00 20,0 18,0 8 4 SSE 10
11.10.2018 21:00:00 20,0 18,0 5 3 ESE 10
11.10.2018 20:00:00 21,0 18,0 4 2 - 10
11.10.2018 19:00:00 22,0 17,0 9 5 SSW 10
11.10.2018 18:00:00 22,0 17,0 5 3 - 0,9
11.10.2018 17:00:00 24,0 17,0 11 6 SSW 10
11.10.2018 16:00:00 23,0 17,0 11 6 SSW 10
11.10.2018 15:00:00 23,0 17,0 13 7 SSW 10
11.10.2018 14:00:00 25,0 15,0 5 3 - 10
11.10.2018 13:00:00 25,0 15,0 8 4 - 10
11.10.2018 12:00:00 24,0 16,0 5 3 WNW 10
11.10.2018 11:00:00 23,0 16,0 5 3 - 10
11.10.2018 10:00:00 22,0 16,0 5 3 - 10
11.10.2018 09:00:00 20,0 16,0 5 3 - 10
11.10.2018 08:00:00 15,0 14,0 5 3 NE 10
11.10.2018 07:00:00 15,0 14,0 5 3 NNE 10
11.10.2018 06:00:00 - - - - - -
11.10.2018 05:00:00 - - - - - -

tt = Température de l'air
td = dewpoint
ff = Vitesse du vent
dd = Direction du vent
vv = visibility

stations d'obs. à proximité